createdAt,value
2022-09-02T00:01:10.183Z,99358.47
2022-09-02T00:03:38.455Z,99355.97
2022-09-02T00:06:06.523Z,99357.44
2022-09-02T00:08:34.878Z,99351.72
2022-09-02T00:11:06.588Z,99356.59
2022-09-02T00:13:36.689Z,99345.81
2022-09-02T00:16:05.747Z,99349.00
2022-09-02T00:18:33.978Z,99342.59
2022-09-02T00:21:03.963Z,99343.81
2022-09-02T00:23:32.300Z,99342.72
2022-09-02T00:26:00.390Z,99341.88
2022-09-02T00:28:28.289Z,99337.06
2022-09-02T00:30:58.543Z,99339.72
2022-09-02T00:33:26.380Z,99335.50
2022-09-02T00:35:54.289Z,99333.59
2022-09-02T00:38:22.518Z,99337.63
2022-09-02T00:40:51.095Z,99333.19
2022-09-02T00:43:38.069Z,99332.97
2022-09-02T00:46:06.665Z,99328.81
2022-09-02T00:48:35.768Z,99327.47
2022-09-02T00:51:04.438Z,99324.00
2022-09-02T00:53:35.567Z,99329.50
2022-09-02T00:56:03.688Z,99325.88
2022-09-02T00:58:33.698Z,99317.78
2022-09-02T01:01:02.046Z,99331.88
2022-09-02T01:03:31.936Z,99318.69
2022-09-02T01:06:00.228Z,99315.22
2022-09-02T01:08:34.878Z,99324.28
2022-09-02T01:11:06.327Z,99317.78
2022-09-02T01:13:38.928Z,99311.72
2022-09-02T01:16:14.366Z,99324.59
2022-09-02T01:18:45.978Z,99323.00
2022-09-02T01:21:14.387Z,99326.62
2022-09-02T01:23:42.642Z,99318.69
2022-09-02T01:26:10.986Z,99316.50
2022-09-02T01:28:38.888Z,99313.41
2022-09-02T01:31:07.708Z,99321.69
2022-09-02T01:33:35.638Z,99320.56
2022-09-02T01:36:04.840Z,99325.38
2022-09-02T01:38:33.140Z,99311.31
2022-09-02T01:41:01.421Z,99316.81
2022-09-02T01:43:30.085Z,99316.66
2022-09-02T01:45:59.737Z,99322.28
2022-09-02T01:48:28.368Z,99307.13
2022-09-02T01:51:00.471Z,99309.41
2022-09-02T01:53:30.309Z,99309.94
2022-09-02T01:55:58.640Z,99308.84
2022-09-02T01:58:28.834Z,99311.72
2022-09-02T02:00:57.067Z,99307.19
2022-09-02T02:03:25.550Z,99304.56
2022-09-02T02:05:53.859Z,99304.12
2022-09-02T02:08:23.220Z,99299.69
2022-09-02T02:10:51.928Z,99301.13
2022-09-02T02:13:19.905Z,99299.37
2022-09-02T02:15:47.947Z,99296.72
2022-09-02T02:18:17.419Z,99298.88
2022-09-02T02:20:45.248Z,99297.47
2022-09-02T02:23:13.597Z,99300.81
2022-09-02T02:25:41.949Z,99296.72
2022-09-02T02:28:09.908Z,99302.97
2022-09-02T02:30:38.838Z,99296.47
2022-09-02T02:33:07.918Z,99300.81
2022-09-02T02:35:35.776Z,99292.84
2022-09-02T02:38:04.531Z,99297.25
2022-09-02T02:40:33.279Z,99300.13
2022-09-02T02:43:01.341Z,99301.34
2022-09-02T02:45:29.769Z,99297.75
2022-09-02T02:47:59.177Z,99304.75
2022-09-02T02:50:27.778Z,99297.38
2022-09-02T02:52:56.598Z,99304.22
2022-09-02T02:55:25.930Z,99301.84
2022-09-02T02:57:54.038Z,99303.97
2022-09-02T03:00:28.338Z,99289.47
2022-09-02T03:02:58.636Z,99298.84
2022-09-02T03:05:26.808Z,99291.13
2022-09-02T03:07:54.838Z,99295.13
2022-09-02T03:10:23.643Z,99294.53
2022-09-02T03:12:52.726Z,99293.09
2022-09-02T03:15:21.175Z,99300.28
2022-09-02T03:17:51.100Z,99285.31
2022-09-02T03:20:20.030Z,99292.00
2022-09-02T03:22:50.747Z,99285.00
2022-09-02T03:25:20.998Z,99290.81
2022-09-02T03:27:50.466Z,99285.91
2022-09-02T03:30:25.440Z,99290.44
2022-09-02T03:32:58.397Z,99288.31
2022-09-02T03:35:29.197Z,99288.53
2022-09-02T03:37:59.617Z,99289.84
2022-09-02T03:40:28.573Z,99291.16
2022-09-02T03:43:00.142Z,99288.59
2022-09-02T03:45:30.064Z,99288.88
2022-09-02T03:47:59.428Z,99287.59
2022-09-02T03:50:31.539Z,99287.41
2022-09-02T03:53:01.167Z,99284.00
2022-09-02T03:55:29.769Z,99287.66
2022-09-02T03:57:57.907Z,99286.34
2022-09-02T04:00:32.075Z,99284.47
2022-09-02T04:03:02.026Z,99284.97
2022-09-02T04:05:31.366Z,99282.41
2022-09-02T04:08:00.570Z,99286.41
2022-09-02T04:10:31.129Z,99284.00
2022-09-02T04:13:02.670Z,99283.53
2022-09-02T04:15:31.510Z,99293.94
2022-09-02T04:18:02.716Z,99289.28
2022-09-02T04:20:32.972Z,99293.69
2022-09-02T04:23:03.871Z,99297.44
2022-09-02T04:25:33.980Z,99293.72
2022-09-02T04:28:01.968Z,99294.38
2022-09-02T04:30:30.517Z,99297.81
2022-09-02T04:32:59.525Z,99298.13
2022-09-02T04:35:27.466Z,99299.09
2022-09-02T04:37:55.830Z,99297.09
2022-09-02T04:40:24.640Z,99303.03
2022-09-02T04:42:55.530Z,99300.03
2022-09-02T04:45:29.141Z,99303.44
2022-09-02T04:47:58.446Z,99309.91
2022-09-02T04:50:27.099Z,99303.75
2022-09-02T04:52:58.950Z,99301.78
2022-09-02T04:55:27.793Z,99305.16
2022-09-02T04:57:56.260Z,99304.03
2022-09-02T05:00:24.972Z,99309.44
2022-09-02T05:02:56.816Z,99306.53
2022-09-02T05:05:26.368Z,99304.69
2022-09-02T05:07:55.269Z,99314.13
2022-09-02T05:10:23.618Z,99310.13
2022-09-02T05:12:52.541Z,99304.12
2022-09-02T05:15:21.577Z,99306.16
2022-09-02T05:17:50.358Z,99306.31
2022-09-02T05:20:18.641Z,99304.31
2022-09-02T05:22:47.949Z,99303.69
2022-09-02T05:25:16.079Z,99312.22
2022-09-02T05:27:45.179Z,99313.38
2022-09-02T05:30:14.554Z,99311.31
2022-09-02T05:32:44.297Z,99308.31
2022-09-02T05:35:12.329Z,99312.16
2022-09-02T05:37:41.713Z,99309.47
2022-09-02T05:40:15.025Z,99309.53
2022-09-02T05:42:43.848Z,99305.81
2022-09-02T05:45:16.472Z,99307.87
2022-09-02T05:47:46.150Z,99307.66
2022-09-02T05:50:15.235Z,99308.44
2022-09-02T05:52:45.200Z,99314.87
2022-09-02T05:55:13.720Z,99305.63
2022-09-02T05:57:43.582Z,99303.47
2022-09-02T06:00:17.686Z,99312.88
2022-09-02T06:02:48.636Z,99306.78
2022-09-02T06:05:19.044Z,99314.13
2022-09-02T06:07:47.642Z,99314.47
2022-09-02T06:10:17.600Z,99315.81
2022-09-02T06:12:45.746Z,99309.88
2022-09-02T06:15:15.141Z,99315.87
2022-09-02T06:17:43.154Z,99311.94
2022-09-02T06:20:11.956Z,99312.28
2022-09-02T06:22:41.875Z,99318.44
2022-09-02T06:25:09.801Z,99314.50
2022-09-02T06:27:38.464Z,99317.09
2022-09-02T06:30:07.640Z,99315.03
2022-09-02T06:32:35.723Z,99318.72
2022-09-02T06:35:04.901Z,99312.19
2022-09-02T06:37:33.694Z,99315.28
2022-09-02T06:40:01.794Z,99320.84
2022-09-02T06:42:30.008Z,99330.53
2022-09-02T06:44:59.889Z,99321.69
2022-09-02T06:47:29.092Z,99331.56
2022-09-02T06:49:57.701Z,99328.84
2022-09-02T06:52:26.773Z,99327.59
2022-09-02T06:54:55.555Z,99329.22
2022-09-02T06:57:31.431Z,99322.41
2022-09-02T07:00:06.263Z,99322.31
2022-09-02T07:02:34.896Z,99319.94
2022-09-02T07:05:15.707Z,99320.88
2022-09-02T07:07:46.153Z,99327.44
2022-09-02T07:10:15.282Z,99317.28
2022-09-02T07:12:44.185Z,99319.19
2022-09-02T07:15:13.012Z,99311.47
2022-09-02T07:17:41.870Z,99317.75
2022-09-02T07:20:10.579Z,99319.75
2022-09-02T07:22:39.581Z,99320.78
2022-09-02T07:25:09.604Z,99317.34
2022-09-02T07:27:37.783Z,99314.06
2022-09-02T07:30:07.473Z,99316.72
2022-09-02T07:32:37.308Z,99320.28
2022-09-02T07:35:07.272Z,99329.72
2022-09-02T07:37:37.207Z,99326.12
2022-09-02T07:40:07.327Z,99325.53
2022-09-02T07:42:35.714Z,99328.69
2022-09-02T07:45:04.280Z,99319.81
2022-09-02T07:47:32.845Z,99321.16
2022-09-02T07:50:19.608Z,99328.59
2022-09-02T07:52:50.775Z,99320.44
2022-09-02T07:55:19.237Z,99319.09
2022-09-02T07:57:48.219Z,99325.53
2022-09-02T08:00:18.515Z,99318.34
2022-09-02T08:02:48.098Z,99319.69
2022-09-02T08:05:17.702Z,99323.78
2022-09-02T08:07:46.019Z,99323.75
2022-09-02T08:10:16.346Z,99321.47
2022-09-02T08:12:45.322Z,99320.59
2022-09-02T08:15:13.752Z,99331.09
2022-09-02T08:17:43.481Z,99326.69
2022-09-02T08:20:13.037Z,99325.44
2022-09-02T08:22:42.200Z,99315.87
2022-09-02T08:25:11.168Z,99325.31
2022-09-02T08:27:41.439Z,99319.34
2022-09-02T08:30:12.831Z,99318.56
2022-09-02T08:32:41.606Z,99316.47
2022-09-02T08:35:10.801Z,99324.66
2022-09-02T08:37:39.039Z,99318.97
2022-09-02T08:40:11.182Z,99318.22
2022-09-02T08:42:49.659Z,99314.19
2022-09-02T08:45:31.244Z,99312.66
2022-09-02T08:48:08.581Z,99312.38
2022-09-02T08:50:38.091Z,99313.09
2022-09-02T08:53:37.817Z,99316.97
2022-09-02T08:56:06.975Z,99317.59
2022-09-02T08:58:47.461Z,99318.16
2022-09-02T09:01:55.265Z,99314.37
2022-09-02T09:05:02.210Z,99311.81
2022-09-02T09:07:38.237Z,99314.09
2022-09-02T09:10:10.165Z,99315.19
2022-09-02T09:13:41.446Z,99304.16
2022-09-02T09:16:19.894Z,99301.88
2022-09-02T09:18:56.984Z,99306.13
2022-09-02T09:24:01.605Z,99306.00
2022-09-02T09:26:33.680Z,99303.38
2022-09-02T09:29:05.141Z,99295.13
2022-09-02T09:31:36.037Z,99307.41
2022-09-02T09:34:12.818Z,99310.91
2022-09-02T09:36:41.147Z,99295.09
2022-09-02T09:39:20.881Z,99294.44
2022-09-02T09:41:50.212Z,99294.91
2022-09-02T09:44:46.969Z,99291.94
2022-09-02T09:47:21.404Z,99291.31
2022-09-02T09:49:51.568Z,99281.69
2022-09-02T09:52:30.094Z,99280.47
2022-09-02T09:55:12.637Z,99279.50
2022-09-02T09:57:45.609Z,99281.56
2022-09-02T10:00:29.805Z,99282.38
2022-09-02T10:03:05.175Z,99275.72
2022-09-02T10:05:38.394Z,99281.78
2022-09-02T10:08:20.861Z,99277.63
2022-09-02T10:11:02.297Z,99276.84
2022-09-02T10:13:36.890Z,99270.41
2022-09-02T10:16:14.418Z,99274.06
2022-09-02T10:18:57.000Z,99282.53
2022-09-02T10:21:52.994Z,99276.19
2022-09-02T10:24:44.041Z,99281.09
2022-09-02T10:27:16.660Z,99280.75
2022-09-02T10:29:48.006Z,99279.84
2022-09-02T10:32:46.922Z,99286.56
2022-09-02T10:35:41.261Z,99282.97
2022-09-02T10:38:29.612Z,99283.94
2022-09-02T10:41:14.291Z,99283.03
2022-09-02T10:43:42.542Z,99285.41
2022-09-02T10:46:17.824Z,99281.94
2022-09-02T10:49:11.057Z,99280.81
2022-09-02T10:51:54.091Z,99275.34
2022-09-02T10:54:24.919Z,99282.69
2022-09-02T10:57:04.502Z,99277.94
2022-09-02T10:59:41.471Z,99284.13
2022-09-02T11:02:21.511Z,99288.16
2022-09-02T11:05:01.685Z,99277.50
2022-09-02T11:08:00.932Z,99280.91
2022-09-02T11:10:37.687Z,99276.59
2022-09-02T11:13:21.925Z,99280.91
2022-09-02T11:16:01.133Z,99276.59
2022-09-02T11:18:33.710Z,99273.62
2022-09-02T11:21:07.739Z,99273.78
2022-09-02T11:23:50.661Z,99269.41
2022-09-02T11:26:25.386Z,99264.19
2022-09-02T11:29:05.629Z,99260.63
2022-09-02T11:31:39.027Z,99260.97
2022-09-02T11:34:37.255Z,99260.78
2022-09-02T11:37:08.330Z,99254.94
2022-09-02T11:39:54.370Z,99264.34
2022-09-02T11:42:50.506Z,99260.53
2022-09-02T11:45:32.395Z,99256.63
2022-09-02T11:48:20.590Z,99257.28
2022-09-02T11:51:24.161Z,99242.16
2022-09-02T11:53:54.922Z,99253.81
2022-09-02T11:56:30.776Z,99250.72
2022-09-02T11:58:58.963Z,99249.03
2022-09-02T12:01:43.744Z,99238.81
2022-09-02T12:07:08.695Z,99239.16
2022-09-02T12:09:57.114Z,99241.69
2022-09-02T12:12:37.540Z,99235.81
2022-09-02T12:15:07.264Z,99233.91
2022-09-02T12:17:40.570Z,99236.72
2022-09-02T12:20:13.044Z,99236.69
2022-09-02T12:22:42.210Z,99234.94
2022-09-02T12:25:27.013Z,99225.41
2022-09-02T12:28:21.752Z,99232.22
2022-09-02T12:30:56.878Z,99224.91
2022-09-02T12:33:30.403Z,99224.03
2022-09-02T12:36:00.040Z,99227.00
2022-09-02T12:38:36.734Z,99223.72
2022-09-02T12:41:05.372Z,99219.06
2022-09-02T12:43:58.042Z,99223.59
2022-09-02T12:46:45.016Z,99222.50
2022-09-02T12:49:32.499Z,99217.84
2022-09-02T12:52:07.316Z,99210.66
2022-09-02T12:54:40.157Z,99217.44
2022-09-02T12:57:09.983Z,99215.44
2022-09-02T12:59:40.342Z,99203.19
2022-09-02T13:02:13.899Z,99208.56
2022-09-02T13:05:10.380Z,99211.44
2022-09-02T13:08:13.361Z,99204.75
2022-09-02T13:10:44.030Z,99200.13
2022-09-02T13:13:19.930Z,99204.38
2022-09-02T13:15:51.196Z,99205.75
2022-09-02T13:19:01.409Z,99201.66
2022-09-02T13:21:52.086Z,99197.44
2022-09-02T13:24:43.496Z,99197.22
2022-09-02T13:27:26.477Z,99195.22
2022-09-02T13:30:07.451Z,99194.19
2022-09-02T13:32:35.992Z,99200.84
2022-09-02T13:35:08.461Z,99196.03
2022-09-02T13:37:43.485Z,99194.78
2022-09-02T13:40:25.282Z,99193.00
2022-09-02T13:42:59.250Z,99192.22
2022-09-02T13:45:29.755Z,99186.91
2022-09-02T13:48:13.682Z,99181.19
2022-09-02T13:50:50.874Z,99185.66
2022-09-02T13:54:05.506Z,99185.37
2022-09-02T13:56:25.833Z,99181.16
2022-09-02T13:58:58.542Z,99181.81
2022-09-02T14:01:34.180Z,99179.25
2022-09-02T14:06:41.857Z,99181.12
2022-09-02T14:09:22.662Z,99189.47
2022-09-02T14:11:50.982Z,99186.94
2022-09-02T14:14:23.335Z,99180.94
2022-09-02T14:16:52.794Z,99178.37
2022-09-02T14:19:20.986Z,99185.22
2022-09-02T14:21:57.543Z,99181.66
2022-09-02T14:24:30.672Z,99177.50
2022-09-02T14:27:00.359Z,99186.50
2022-09-02T14:29:32.493Z,99184.22
2022-09-02T14:32:24.719Z,99183.88
2022-09-02T14:35:18.790Z,99189.75
2022-09-02T14:38:00.200Z,99187.13
2022-09-02T14:40:37.307Z,99183.69
2022-09-02T14:43:12.662Z,99185.94
2022-09-02T14:45:46.313Z,99194.94
2022-09-02T14:48:22.600Z,99193.16
2022-09-02T14:51:02.637Z,99193.22
2022-09-02T14:53:31.412Z,99192.25
2022-09-02T14:56:00.308Z,99189.03
2022-09-02T14:58:29.070Z,99200.53
2022-09-02T15:01:00.588Z,99196.13
2022-09-02T15:03:31.477Z,99191.56
2022-09-02T15:05:59.563Z,99194.47
2022-09-02T15:08:27.496Z,99198.41
2022-09-02T15:10:59.218Z,99189.56
2022-09-02T15:13:34.161Z,99190.50
2022-09-02T15:16:03.414Z,99192.75
2022-09-02T15:18:31.901Z,99195.41
2022-09-02T15:21:01.819Z,99183.78
2022-09-02T15:23:33.722Z,99192.72
2022-09-02T15:26:03.736Z,99189.00
2022-09-02T15:28:32.354Z,99181.81
2022-09-02T15:31:02.214Z,99183.72
2022-09-02T15:33:30.737Z,99186.06
2022-09-02T15:36:10.152Z,99183.69
2022-09-02T15:38:38.601Z,99191.91
2022-09-02T15:41:17.154Z,99194.38
2022-09-02T15:43:46.352Z,99187.72
2022-09-02T15:46:18.231Z,99197.56
2022-09-02T15:48:46.842Z,99199.72
2022-09-02T15:51:17.230Z,99206.50
2022-09-02T15:53:49.416Z,99205.75
2022-09-02T15:56:20.346Z,99206.56
2022-09-02T15:58:48.494Z,99215.09
2022-09-02T16:01:19.294Z,99217.44
2022-09-02T16:03:56.206Z,99218.78
2022-09-02T16:06:25.337Z,99220.50
2022-09-02T16:08:53.782Z,99225.56
2022-09-02T16:11:22.865Z,99230.31
2022-09-02T16:13:54.134Z,99223.22
2022-09-02T16:16:22.843Z,99231.78
2022-09-02T16:18:53.016Z,99227.06
2022-09-02T16:21:21.809Z,99231.41
2022-09-02T16:23:56.501Z,99226.34
2022-09-02T16:26:27.411Z,99225.44
2022-09-02T16:29:04.870Z,99227.25
2022-09-02T16:31:35.406Z,99231.47
2022-09-02T16:34:07.062Z,99232.53
2022-09-02T16:36:37.184Z,99243.88
2022-09-02T16:39:06.400Z,99236.03
2022-09-02T16:41:39.202Z,99244.31
2022-09-02T16:44:09.610Z,99242.47
2022-09-02T16:46:40.731Z,99246.19
2022-09-02T16:49:11.215Z,99249.13
2022-09-02T16:51:41.102Z,99252.63
2022-09-02T16:54:17.323Z,99248.78
2022-09-02T16:56:45.942Z,99260.38
2022-09-02T16:59:14.291Z,99255.00
2022-09-02T17:01:42.537Z,99257.81
2022-09-02T17:04:10.574Z,99257.16
2022-09-02T17:06:42.148Z,99262.91
2022-09-02T17:09:10.216Z,99263.34
2022-09-02T17:11:39.950Z,99266.56
2022-09-02T17:14:11.043Z,99259.16
2022-09-02T17:16:40.784Z,99256.72
2022-09-02T17:19:10.815Z,99257.69
2022-09-02T17:21:42.677Z,99259.56
2022-09-02T17:24:12.193Z,99266.84
2022-09-02T17:26:42.292Z,99263.91
2022-09-02T17:29:46.783Z,99267.41
2022-09-02T17:32:07.392Z,99266.22
2022-09-02T17:34:36.742Z,99263.31
2022-09-02T17:37:05.526Z,99267.28
2022-09-02T17:39:36.753Z,99265.69
2022-09-02T17:42:06.380Z,99255.94
2022-09-02T17:44:36.720Z,99266.94
2022-09-02T17:47:10.340Z,99262.22
2022-09-02T17:49:39.160Z,99264.22
2022-09-02T17:52:08.407Z,99271.16
2022-09-02T17:54:37.756Z,99273.00
2022-09-02T17:57:25.623Z,99277.44
2022-09-02T18:00:06.097Z,99277.81
2022-09-02T18:02:36.138Z,99285.28
2022-09-02T18:05:29.128Z,99281.66
2022-09-02T18:08:09.870Z,99280.22
2022-09-02T18:10:38.530Z,99276.56
2022-09-02T18:13:15.269Z,99279.66
2022-09-02T18:15:57.920Z,99285.84
2022-09-02T18:18:28.163Z,99285.66
2022-09-02T18:21:08.230Z,99286.72
2022-09-02T18:24:09.900Z,99285.84
2022-09-02T18:27:17.910Z,99293.88
2022-09-02T18:29:53.380Z,99291.63
2022-09-02T18:32:33.620Z,99297.34
2022-09-02T18:35:14.105Z,99296.75
2022-09-02T18:37:59.470Z,99297.34
2022-09-02T18:41:03.124Z,99300.81
2022-09-02T18:44:09.332Z,99296.34
2022-09-02T18:46:52.672Z,99296.53
2022-09-02T18:49:23.150Z,99307.19
2022-09-02T18:51:57.250Z,99300.53
2022-09-02T18:54:28.090Z,99296.84
2022-09-02T18:56:58.485Z,99297.13
2022-09-02T18:59:32.082Z,99304.03
2022-09-02T19:02:14.777Z,99299.09
2022-09-02T19:04:42.816Z,99300.34
2022-09-02T19:07:30.891Z,99298.94
2022-09-02T19:10:04.069Z,99302.56
2022-09-02T19:12:33.959Z,99309.94
2022-09-02T19:15:04.688Z,99308.03
2022-09-02T19:17:33.009Z,99309.34
2022-09-02T19:20:01.115Z,99308.69
2022-09-02T19:22:31.245Z,99305.22
2022-09-02T19:25:03.899Z,99305.28
2022-09-02T19:27:34.681Z,99309.34
2022-09-02T19:30:07.477Z,99313.16
2022-09-02T19:32:37.132Z,99321.25
2022-09-02T19:35:12.320Z,99318.25
2022-09-02T19:37:44.890Z,99317.88
2022-09-02T19:40:17.381Z,99312.16
2022-09-02T19:42:45.273Z,99311.75
2022-09-02T19:45:16.451Z,99318.78
2022-09-02T19:48:05.981Z,99319.66
2022-09-02T19:50:33.355Z,99322.87
2022-09-02T19:53:01.301Z,99312.66
2022-09-02T19:55:29.821Z,99311.91
2022-09-02T19:58:00.508Z,99322.56
2022-09-02T20:00:28.340Z,99312.41
2022-09-02T20:02:57.182Z,99314.19
2022-09-02T20:05:26.141Z,99317.63
2022-09-02T20:07:55.131Z,99316.53
2022-09-02T20:10:28.257Z,99311.38
2022-09-02T20:12:59.538Z,99314.03
2022-09-02T20:15:27.979Z,99314.81
2022-09-02T20:18:17.133Z,99309.97
2022-09-02T20:20:47.022Z,99319.31
2022-09-02T20:23:17.483Z,99326.50
2022-09-02T20:25:57.842Z,99322.56
2022-09-02T20:28:34.819Z,99325.78
2022-09-02T20:31:31.114Z,99337.72
2022-09-02T20:34:18.002Z,99330.94
2022-09-02T20:37:13.570Z,99327.31
2022-09-02T20:39:59.423Z,99328.28
2022-09-02T20:42:45.657Z,99323.63
2022-09-02T20:45:43.888Z,99332.94
2022-09-02T20:48:28.208Z,99328.75
2022-09-02T20:51:14.561Z,99330.75
2022-09-02T20:54:01.414Z,99335.34
2022-09-02T20:56:38.697Z,99339.38
2022-09-02T20:59:08.009Z,99342.34
2022-09-02T21:01:37.646Z,99339.19
2022-09-02T21:04:20.931Z,99338.22
2022-09-02T21:07:19.870Z,99339.16
2022-09-02T21:10:16.881Z,99334.03
2022-09-02T21:12:51.789Z,99341.72
2022-09-02T21:15:41.440Z,99335.53
2022-09-02T21:18:26.420Z,99334.38
2022-09-02T21:21:22.330Z,99332.72
2022-09-02T21:23:55.800Z,99337.63
2022-09-02T21:26:38.084Z,99344.84
2022-09-02T21:29:21.782Z,99340.28
2022-09-02T21:31:58.560Z,99340.09
2022-09-02T21:35:21.958Z,99344.09
2022-09-02T21:37:53.422Z,99339.16
2022-09-02T21:40:23.790Z,99348.28
2022-09-02T21:43:00.477Z,99344.41
2022-09-02T21:45:49.790Z,99339.91
2022-09-02T21:48:35.641Z,99334.41
2022-09-02T21:51:10.530Z,99329.31
2022-09-02T21:53:45.419Z,99339.50
2022-09-02T21:56:32.500Z,99337.63
2022-09-02T21:59:28.647Z,99345.59
2022-09-02T22:02:01.486Z,99345.53
2022-09-02T22:04:44.428Z,99338.06
2022-09-02T22:07:42.262Z,99340.81
2022-09-02T22:10:26.616Z,99341.66
2022-09-02T22:12:58.769Z,99334.34
2022-09-02T22:15:58.216Z,99336.09
2022-09-02T22:18:38.249Z,99332.72
2022-09-02T22:21:31.391Z,99341.34
2022-09-02T22:24:02.151Z,99332.44
2022-09-02T22:26:54.929Z,99334.06
2022-09-02T22:29:36.690Z,99334.75
2022-09-02T22:32:09.356Z,99332.59
2022-09-02T22:34:46.308Z,99335.19
2022-09-02T22:37:19.009Z,99337.50
2022-09-02T22:39:56.651Z,99335.31
2022-09-02T22:42:36.715Z,99326.00
2022-09-02T22:45:29.139Z,99327.19
2022-09-02T22:48:20.231Z,99327.19
2022-09-02T22:51:19.107Z,99323.56
2022-09-02T22:53:50.561Z,99326.12
2022-09-02T22:56:31.788Z,99322.66
2022-09-02T22:59:08.030Z,99316.38
2022-09-02T23:01:53.900Z,99320.63
2022-09-02T23:04:51.470Z,99316.38
2022-09-02T23:07:19.229Z,99311.38
2022-09-02T23:09:48.384Z,99308.78
2022-09-02T23:12:47.311Z,99312.03
2022-09-02T23:15:37.255Z,99304.84
2022-09-02T23:18:19.252Z,99304.50
2022-09-02T23:21:10.009Z,99311.25
2022-09-02T23:23:44.568Z,99313.19
2022-09-02T23:26:33.321Z,99304.31
2022-09-02T23:29:26.215Z,99308.06
2022-09-02T23:32:22.732Z,99301.91
2022-09-02T23:35:29.499Z,99300.03
2022-09-02T23:37:57.659Z,99304.84
2022-09-02T23:40:30.846Z,99305.22
2022-09-02T23:42:59.513Z,99303.62
2022-09-02T23:45:29.080Z,99295.13
2022-09-02T23:48:18.080Z,99301.97
2022-09-02T23:50:57.705Z,99299.87
2022-09-02T23:53:50.881Z,99299.59
2022-09-02T23:56:24.536Z,99299.25
2022-09-02T23:59:01.581Z,99292.56
